Home > Products > Valid Products > TAF

000
FTUS41 KPBZ 190908 AAA
TAFPIT
TAF AMD
KPIT 190908Z 1909/2012 06004KT P6SM BKN250
     FM191000 06007KT P6SM BKN100 WS020/14030KT
     FM191400 12012G22KT P6SM BKN150
     FM192200 13012G22KT 5SM -SHRA OVC035=



000
FTUS41 KPBZ 190539
TAFMGW
TAF
KMGW 190539Z 1906/2006 03003KT P6SM BKN200
     FM191000 06007KT P6SM BKN100 WS020/14030KT
     FM191500 12012G22KT P6SM BKN150
     FM192100 13012G22KT 5SM -SHRA OVC035=



000
FTUS41 KPBZ 190539
TAFZZV
TAF
KZZV 190539Z 1906/2006 00000KT P6SM BKN200
     FM191000 06007KT P6SM BKN100 WS020/14030KT
     FM191400 12012G22KT P6SM BKN150
     FM191900 13015G25KT 5SM -SHRA OVC035=



000
FTUS41 KPBZ 190539
TAFAGC
TAF
KAGC 190539Z 1906/2006 03005KT P6SM BKN250
     FM191000 06007KT P6SM BKN100 WS020/14030KT
     FM191400 12012G22KT P6SM BKN150
     FM192200 13012G22KT 5SM -SHRA OVC035=



000
FTUS41 KPBZ 190539
TAFHLG
TAF
KHLG 190539Z 1906/2006 06008KT P6SM BKN200
     FM191000 06007KT P6SM BKN100 WS020/14030KT
     FM191400 12012G22KT P6SM BKN150
     FM192100 13012G22KT 5SM -SHRA OVC035=



000
FTUS41 KPBZ 190539
TAFLBE
TAF
KLBE 190539Z 1906/2006 04004KT P6SM BKN200
     FM191000 06007KT P6SM BKN100 WS020/14030KT
     FM191400 12015G25KT P6SM BKN150
     FM192200 13012G22KT 5SM -SHRA OVC035=



000
FTUS41 KPBZ 190539
TAFDUJ
TAF
KDUJ 190539Z 1906/2006 05007KT P6SM BKN200
     FM191000 06007KT P6SM BKN100 WS020/14030KT
     FM191400 12015G25KT P6SM BKN150
     FM192300 13015G25KT 5SM -SHRA OVC035=



000
FTUS41 KPBZ 190539
TAFBVI
TAF
KBVI 190539Z 1906/2006 33007KT P6SM SCT080 BKN250
     FM191000 06007KT P6SM BKN100 WS020/14030KT
     FM191400 12012G22KT P6SM BKN150
     FM192200 13012G22KT 5SM -SHRA OVC035
      AMD NOT SKED=



000
FTUS41 KPBZ 190539
TAFPIT
TAF
KPIT 190539Z 1906/2012 06008KT P6SM BKN250
     FM191000 06007KT P6SM BKN100 WS020/14030KT
     FM191400 12012G22KT P6SM BKN150
     FM192200 13012G22KT 5SM -SHRA OVC035=



000
FTUS41 KPBZ 190539
TAFLBE
TAF
KLBE 190539Z 1906/2006 04004KT P6SM BKN200
     FM191000 06007KT P6SM BKN100 WS020/14030KT
     FM191400 12015G25KT P6SM BKN150
     FM192200 13012G22KT 5SM -SHRA OVC035=



000
FTUS41 KPBZ 190539
TAFDUJ
TAF
KDUJ 190539Z 1906/2006 05007KT P6SM BKN200
     FM191000 06007KT P6SM BKN100 WS020/14030KT
     FM191400 12015G25KT P6SM BKN150
     FM192300 13015G25KT 5SM -SHRA OVC035=



000
FTUS41 KPBZ 190539
TAFZZV
TAF
KZZV 190539Z 1906/2006 00000KT P6SM BKN200
     FM191000 06007KT P6SM BKN100 WS020/14030KT
     FM191400 12012G22KT P6SM BKN150
     FM191900 13015G25KT 5SM -SHRA OVC035=



000
FTUS41 KPBZ 190539
TAFAGC
TAF
KAGC 190539Z 1906/2006 03005KT P6SM BKN250
     FM191000 06007KT P6SM BKN100 WS020/14030KT
     FM191400 12012G22KT P6SM BKN150
     FM192200 13012G22KT 5SM -SHRA OVC035=



000
FTUS41 KPBZ 190539
TAFMGW
TAF
KMGW 190539Z 1906/2006 03003KT P6SM BKN200
     FM191000 06007KT P6SM BKN100 WS020/14030KT
     FM191500 12012G22KT P6SM BKN150
     FM192100 13012G22KT 5SM -SHRA OVC035=



000
FTUS41 KPBZ 190539
TAFBVI
TAF
KBVI 190539Z 1906/2006 33007KT P6SM SCT080 BKN250
     FM191000 06007KT P6SM BKN100 WS020/14030KT
     FM191400 12012G22KT P6SM BKN150
     FM192200 13012G22KT 5SM -SHRA OVC035
      AMD NOT SKED=



000
FTUS41 KPBZ 190539
TAFHLG
TAF
KHLG 190539Z 1906/2006 06008KT P6SM BKN200
     FM191000 06007KT P6SM BKN100 WS020/14030KT
     FM191400 12012G22KT P6SM BKN150
     FM192100 13012G22KT 5SM -SHRA OVC035=



000
FTUS41 KPBZ 190539
TAFPIT
TAF
KPIT 190539Z 1906/2012 06008KT P6SM BKN250
     FM191000 06007KT P6SM BKN100 WS020/14030KT
     FM191400 12012G22KT P6SM BKN150
     FM192200 13012G22KT 5SM -SHRA OVC035=



000
FTUS41 KPBZ 190245 AAA
TAFPIT
TAF AMD
KPIT 190245Z 1903/2006 06005KT P6SM BKN200
     FM191400 12012G22KT P6SM BKN150
     FM192200 13012G22KT 5SM -SHRA OVC035=



000
FTUS41 KPBZ 182320
TAFPIT
TAF
KPIT 182320Z 1900/2006 03005KT P6SM BKN200
     FM191400 12012G22KT P6SM BKN150
     FM192200 13012G22KT 5SM -SHRA OVC035=



000
FTUS41 KPBZ 182320
TAFBVI
TAF
KBVI 182320Z 1900/1924 03005KT P6SM BKN200
     FM191400 12012G22KT P6SM BKN150
     FM192200 13012G22KT 5SM -SHRA OVC035
      AMD NOT SKED=



000
FTUS41 KPBZ 182320
TAFAGC
TAF
KAGC 182320Z 1900/1924 03005KT P6SM BKN200
     FM191400 12012G22KT P6SM BKN150
     FM192200 13012G22KT 5SM -SHRA OVC035=



000
FTUS41 KPBZ 182320
TAFZZV
TAF
KZZV 182320Z 1900/1924 06005KT P6SM BKN200
     FM191400 12012G22KT P6SM BKN150
     FM191900 13015G25KT 5SM -SHRA OVC035=



000
FTUS41 KPBZ 182320
TAFLBE
TAF
KLBE 182320Z 1900/1924 03005KT P6SM BKN200
     FM191400 12015G25KT P6SM BKN150
     FM192200 13012G22KT 5SM -SHRA OVC035=



000
FTUS41 KPBZ 182320
TAFMGW
TAF
KMGW 182320Z 1900/1924 03005KT P6SM BKN200
     FM191500 12012G22KT P6SM BKN150
     FM192100 13012G22KT 5SM -SHRA OVC035=



000
FTUS41 KPBZ 182320
TAFHLG
TAF
KHLG 182320Z 1900/1924 03005KT P6SM BKN200
     FM191400 12012G22KT P6SM BKN150
     FM192100 13012G22KT 5SM -SHRA OVC035=



000
FTUS41 KPBZ 182320
TAFDUJ
TAF
KDUJ 182320Z 1900/1924 03005KT P6SM BKN200
     FM191400 12015G25KT P6SM BKN150=



000
FTUS41 KPBZ 182059 AAA
TAFPIT
TAF AMD
KPIT 182059Z 1821/1924 36005KT P6SM BKN250
     FM191500 12010G20KT P6SM BKN150
     FM192200 12010G20KT P6SM -SHRA OVC035=



000
FTUS41 KPBZ 181721
TAFAGC
TAF
KAGC 181721Z 1818/1918 33003KT P6SM FEW050
     FM191500 12011G20KT P6SM BKN080=



000
FTUS41 KPBZ 181721
TAFDUJ
TAF
KDUJ 181721Z 1818/1918 31010KT P6SM FEW050
     FM191500 12011G20KT P6SM BKN080=



000
FTUS41 KPBZ 181721
TAFMGW
TAF
KMGW 181721Z 1818/1918 33006KT P6SM SKC
     FM191500 12011G20KT P6SM BKN080=



000
FTUS41 KPBZ 181721
TAFBVI
TAF
KBVI 181721Z 1818/1918 33006KT P6SM FEW050
     FM191500 12011G20KT P6SM BKN080=



000
FTUS41 KPBZ 181721
TAFHLG
TAF
KHLG 181721Z 1818/1918 32006KT P6SM FEW050
     FM191500 12011G20KT P6SM BKN080=



000
FTUS41 KPBZ 181721
TAFLBE
TAF
KLBE 181721Z 1818/1918 32007KT P6SM FEW050
     FM191500 12011G20KT P6SM BKN080=



000
FTUS41 KPBZ 181721
TAFZZV
TAF
KZZV 181721Z 1818/1918 03004KT P6SM SKC
     FM191500 12011G20KT P6SM BKN080=



000
FTUS41 KPBZ 181721
TAFPIT
TAF
KPIT 181721Z 1818/1924 33006KT P6SM FEW050
     FM191500 12011G20KT P6SM BKN080=



000
FTUS41 KPBZ 181455 AAA
TAFPIT
TAF AMD
KPIT 181455Z 1815/1918 VRB03KT P6SM SKC
     FM181800 33008KT P6SM FEW050=



000
FTUS41 KPBZ 181455 AAA
TAFPIT
TAF AMD
KPIT 181455Z 1815/1918 VRB03KT P6SM SKC
     FM181800 33008KT P6SM FEW050=



000
FTUS41 KPBZ 181158 CCA
TAFLBE
TAF COR
KLBE 181158Z 1812/1912 00000KT P6SM SKC
     FM181800 33008KT P6SM FEW050=



000
FTUS41 KPBZ 181158 CCA
TAFLBE
TAF COR
KLBE 181158Z 1812/1912 00000KT P6SM SKC
     FM181800 33008KT P6SM FEW050=



000
FTUS41 KPBZ 181142 CCA
TAFMGW
TAF COR
KMGW 181142Z 1812/1912 00000KT 1/4SM FG VV001
      TEMPO 1812/1813 2SM BR SKC
     FM181300 33006KT P6SM SKC=



000
FTUS41 KPBZ 181142 CCA
TAFMGW
TAF COR
KMGW 181142Z 1812/1912 00000KT 1/4SM FG VV001
      TEMPO 1812/1813 2SM BR SKC
     FM181300 33006KT P6SM SKC=



000
FTUS41 KPBZ 181140
TAFBVI
TAF
KBVI 181140Z 1812/1912 00000KT P6SM SKC
     FM181800 33008KT P6SM FEW050=



000
FTUS41 KPBZ 181140
TAFZZV
TAF
KZZV 181140Z 1812/1912 03004KT P6SM SKC=



000
FTUS41 KPBZ 181140
TAFDUJ
TAF
KDUJ 181140Z 1812/1912 00000KT 5SM BR SKC
     FM181400 31010KT P6SM FEW050=



000
FTUS41 KPBZ 181140
TAFLBE
TAF
KLBE 181140Z 1812/1912 00000KT 1/4SM FG VV001
      TEMPO 1812/1813 2SM BR BKN004
     FM181300 31003KT 4SM BR SKC
     FM181400 32005KT P6SM SKC
     FM181800 33008KT P6SM FEW050=



000
FTUS41 KPBZ 181140
TAFMGW
TAF
KMGW 181140Z 1812/1912 00000KT 2SM BR SKC
     FM181400 33006KT P6SM FEW050=



000
FTUS41 KPBZ 181140
TAFAGC
TAF
KAGC 181140Z 1812/1912 36003KT P6SM SKC
     FM181800 33008KT P6SM FEW050=



000
FTUS41 KPBZ 181140
TAFHLG
TAF
KHLG 181140Z 1812/1912 00000KT P6SM SKC
     FM181800 33008KT P6SM FEW050=



000
FTUS41 KPBZ 181140
TAFPIT
TAF
KPIT 181140Z 1812/1918 00000KT P6SM SKC
     FM181800 33008KT P6SM FEW050=



000
FTUS41 KPBZ 181140
TAFDUJ
TAF
KDUJ 181140Z 1812/1912 00000KT 5SM BR SKC
     FM181400 31010KT P6SM FEW050=



000
FTUS41 KPBZ 181140
TAFAGC
TAF
KAGC 181140Z 1812/1912 36003KT P6SM SKC
     FM181800 33008KT P6SM FEW050=



000
FTUS41 KPBZ 181140
TAFHLG
TAF
KHLG 181140Z 1812/1912 00000KT P6SM SKC
     FM181800 33008KT P6SM FEW050=



000
FTUS41 KPBZ 181140
TAFPIT
TAF
KPIT 181140Z 1812/1918 00000KT P6SM SKC
     FM181800 33008KT P6SM FEW050=



000
FTUS41 KPBZ 181140
TAFBVI
TAF
KBVI 181140Z 1812/1912 00000KT P6SM SKC
     FM181800 33008KT P6SM FEW050=



000
FTUS41 KPBZ 181140
TAFZZV
TAF
KZZV 181140Z 1812/1912 03004KT P6SM SKC=



000
FTUS41 KPBZ 181140
TAFMGW
TAF
KMGW 181140Z 1812/1912 00000KT 2SM BR SKC
     FM181400 33006KT P6SM FEW050=



000
FTUS41 KPBZ 181140
TAFLBE
TAF
KLBE 181140Z 1812/1912 00000KT 1/4SM FG VV001
      TEMPO 1812/1813 2SM BR BKN004
     FM181300 31003KT 4SM BR SKC
     FM181400 32005KT P6SM SKC
     FM181800 33008KT P6SM FEW050=



000
FTUS41 KPBZ 180852 AAB
TAFLBE
TAF AMD
KLBE 180852Z 1809/1906 00000KT 1/4SM FG VV001
      TEMPO 1809/1812 1/2SM FG
     FM181200 00000KT 4SM BR SKC
     FM181300 31005KT P6SM SKC=



000
FTUS41 KPBZ 180852 AAB
TAFLBE
TAF AMD
KLBE 180852Z 1809/1906 00000KT 1/4SM FG VV001
      TEMPO 1809/1812 1/2SM FG
     FM181200 00000KT 4SM BR SKC
     FM181300 31005KT P6SM SKC=



000
FTUS41 KPBZ 180851 AAA
TAFPIT
TAF AMD
KPIT 180851Z 1809/1912 00000KT P6SM FEW250
     FM181800 33008KT P6SM FEW050=



000
FTUS41 KPBZ 180851 AAA
TAFPIT
TAF AMD
KPIT 180851Z 1809/1912 00000KT P6SM FEW250
     FM181800 33008KT P6SM FEW050=



000
FTUS41 KPBZ 180816 AAA
TAFLBE
TAF AMD
KLBE 180816Z 1808/1906 00000KT 6SM BR SKC
      TEMPO 1808/1812 4SM BR
     FM181200 00000KT 4SM BR SKC
     FM181300 31005KT P6SM SKC=



000
FTUS41 KPBZ 180816 AAA
TAFLBE
TAF AMD
KLBE 180816Z 1808/1906 00000KT 6SM BR SKC
      TEMPO 1808/1812 4SM BR
     FM181200 00000KT 4SM BR SKC
     FM181300 31005KT P6SM SKC=



000
FTUS41 KPBZ 180640 AAA
TAFMGW
TAF AMD
KMGW 180640Z 1807/1906 00000KT 1/4SM FG VV001
      TEMPO 1807/1811 1/2SM FG VV002
     FM181200 00000KT 2SM BR SKC
     FM181400 33006KT P6SM FEW050=



000
FTUS41 KPBZ 180523
TAFLBE
TAF
KLBE 180523Z 1806/1906 00000KT 1/2SM FG VV005
     FM181200 00000KT 4SM BR SKC
     FM181300 31005KT P6SM SKC=



000
FTUS41 KPBZ 180523
TAFMGW
TAF
KMGW 180523Z 1806/1906 00000KT 4SM HZ BKN250
     FM180900 00000KT 2SM BR SCT250
     FM181400 33006KT P6SM FEW050=



000
FTUS41 KPBZ 180523
TAFAGC
TAF
KAGC 180523Z 1806/1906 36003KT P6SM SCT250
     FM181800 33008KT P6SM FEW050=



000
FTUS41 KPBZ 180523
TAFHLG
TAF
KHLG 180523Z 1806/1906 00000KT P6SM SCT250
     FM181800 33008KT P6SM FEW050=



000
FTUS41 KPBZ 180523
TAFBVI
TAF
KBVI 180523Z 1806/1906 00000KT P6SM SCT250
     FM181800 33008KT P6SM FEW050=



000
FTUS41 KPBZ 180523
TAFZZV
TAF
KZZV 180523Z 1806/1906 03004KT P6SM SCT250=



000
FTUS41 KPBZ 180523
TAFDUJ
TAF
KDUJ 180523Z 1806/1906 29003KT P6SM SKC
     FM180900 00000KT 5SM BR SKC
     FM181400 31010KT P6SM FEW050=



000
FTUS41 KPBZ 180523
TAFPIT
TAF
KPIT 180523Z 1806/1912 00000KT P6SM SCT250
     FM181800 33008KT P6SM FEW050=



000
FTUS41 KPBZ 180230 AAB
TAFPIT
TAF AMD
KPIT 180230Z 1803/1906 VRB03KT P6SM SCT250
     FM181800 33008KT P6SM FEW050=



000
FTUS41 KPBZ 180230 AAB
TAFPIT
TAF AMD
KPIT 180230Z 1803/1906 VRB03KT P6SM SCT250
     FM181800 33008KT P6SM FEW050=



000
FTUS41 KPBZ 180055 AAA
TAFMGW
TAF AMD
KMGW 180055Z 1801/1824 VRB03KT P6SM BKN250
     FM180900 00000KT 3SM BR SKC
     FM181500 33006KT P6SM FEW050=



000
FTUS41 KPBZ 180055 AAA
TAFLBE
TAF AMD
KLBE 180055Z 1801/1824 VRB03KT P6SM SCT250
     FM181800 33008KT P6SM FEW050=



000
FTUS41 KPBZ 180055 AAA
TAFPIT
TAF AMD
KPIT 180055Z 1801/1906 VRB03KT P6SM SCT250
     FM181800 33008KT P6SM FEW050=



000
FTUS41 KPBZ 180055 AAA
TAFZZV
TAF AMD
KZZV 180055Z 1801/1824 VRB03KT P6SM SCT250
     FM181800 01006KT P6SM FEW050=



000
FTUS41 KPBZ 180055 AAA
TAFHLG
TAF AMD
KHLG 180055Z 1801/1824 VRB03KT P6SM SCT250
     FM181800 33008KT P6SM FEW050=



000
FTUS41 KPBZ 180055 AAA
TAFBVI
TAF AMD
KBVI 180055Z 1801/1824 VRB03KT P6SM SCT250
     FM181800 33008KT P6SM FEW050=



000
FTUS41 KPBZ 180055 AAA
TAFMGW
TAF AMD
KMGW 180055Z 1801/1824 VRB03KT P6SM BKN250
     FM180900 00000KT 3SM BR SKC
     FM181500 33006KT P6SM FEW050=



000
FTUS41 KPBZ 180055 AAA
TAFAGC
TAF AMD
KAGC 180055Z 1801/1824 VRB03KT P6SM SCT250
     FM181800 33008KT P6SM FEW050=



000
FTUS41 KPBZ 180055 AAA
TAFBVI
TAF AMD
KBVI 180055Z 1801/1824 VRB03KT P6SM SCT250
     FM181800 33008KT P6SM FEW050=



000
FTUS41 KPBZ 180055 AAA
TAFZZV
TAF AMD
KZZV 180055Z 1801/1824 VRB03KT P6SM SCT250
     FM181800 01006KT P6SM FEW050=



000
FTUS41 KPBZ 180055 AAA
TAFAGC
TAF AMD
KAGC 180055Z 1801/1824 VRB03KT P6SM SCT250
     FM181800 33008KT P6SM FEW050=



000
FTUS41 KPBZ 180055 AAA
TAFPIT
TAF AMD
KPIT 180055Z 1801/1906 VRB03KT P6SM SCT250
     FM181800 33008KT P6SM FEW050=



000
FTUS41 KPBZ 180055 AAA
TAFLBE
TAF AMD
KLBE 180055Z 1801/1824 VRB03KT P6SM SCT250
     FM181800 33008KT P6SM FEW050=



000
FTUS41 KPBZ 180055 AAA
TAFHLG
TAF AMD
KHLG 180055Z 1801/1824 VRB03KT P6SM SCT250
     FM181800 33008KT P6SM FEW050=



000
FTUS41 KPBZ 172320
TAFMGW
TAF
KMGW 172320Z 1800/1824 VRB03KT P6SM SKC
     FM180900 00000KT 3SM BR SKC
     FM181500 33006KT P6SM FEW050=



000
FTUS41 KPBZ 172320
TAFAGC
TAF
KAGC 172320Z 1800/1824 VRB03KT P6SM SKC
     FM181800 33008KT P6SM FEW050=



000
FTUS41 KPBZ 172320
TAFBVI
TAF
KBVI 172320Z 1800/1824 VRB03KT P6SM SKC
     FM181800 33008KT P6SM FEW050=



000
FTUS41 KPBZ 172320
TAFZZV
TAF
KZZV 172320Z 1800/1824 VRB03KT P6SM SKC
     FM181800 01006KT P6SM FEW050=



000
FTUS41 KPBZ 172320
TAFPIT
TAF
KPIT 172320Z 1800/1906 VRB03KT P6SM SKC
     FM181800 33008KT P6SM FEW050=



000
FTUS41 KPBZ 172320
TAFMGW
TAF
KMGW 172320Z 1800/1824 VRB03KT P6SM SKC
     FM180900 00000KT 3SM BR SKC
     FM181500 33006KT P6SM FEW050=



000
FTUS41 KPBZ 172320
TAFAGC
TAF
KAGC 172320Z 1800/1824 VRB03KT P6SM SKC
     FM181800 33008KT P6SM FEW050=



000
FTUS41 KPBZ 172320
TAFBVI
TAF
KBVI 172320Z 1800/1824 VRB03KT P6SM SKC
     FM181800 33008KT P6SM FEW050=



000
FTUS41 KPBZ 172320
TAFZZV
TAF
KZZV 172320Z 1800/1824 VRB03KT P6SM SKC
     FM181800 01006KT P6SM FEW050=



000
FTUS41 KPBZ 172320
TAFDUJ
TAF
KDUJ 172320Z 1800/1824 VRB03KT P6SM SKC
     FM180900 00000KT 5SM BR SKC
     FM181500 31010KT P6SM FEW050=



000
FTUS41 KPBZ 172320
TAFHLG
TAF
KHLG 172320Z 1800/1824 VRB03KT P6SM SKC
     FM181800 33008KT P6SM FEW050=



000
FTUS41 KPBZ 172320
TAFLBE
TAF
KLBE 172320Z 1800/1824 VRB03KT P6SM SKC
     FM181800 33008KT P6SM FEW050=



000
FTUS41 KPBZ 172320
TAFDUJ
TAF
KDUJ 172320Z 1800/1824 VRB03KT P6SM SKC
     FM180900 00000KT 5SM BR SKC
     FM181500 31010KT P6SM FEW050=



000
FTUS41 KPBZ 172320
TAFHLG
TAF
KHLG 172320Z 1800/1824 VRB03KT P6SM SKC
     FM181800 33008KT P6SM FEW050=



000
FTUS41 KPBZ 172320
TAFLBE
TAF
KLBE 172320Z 1800/1824 VRB03KT P6SM SKC
     FM181800 33008KT P6SM FEW050=



000
FTUS41 KPBZ 172320
TAFPIT
TAF
KPIT 172320Z 1800/1906 VRB03KT P6SM SKC
     FM181800 33008KT P6SM FEW050=



000
FTUS41 KPBZ 172101 AAA
TAFPIT
TAF AMD
KPIT 172101Z 1721/1824 30006KT P6SM SCT045
     FM180100 VRB03KT P6SM SKC=



000
FTUS41 KPBZ 172100 AAA
TAFDUJ
TAF AMD
KDUJ 172100Z 1721/1818 30006KT P6SM SCT040
     FM180100 VRB02KT P6SM SKC=



000
FTUS41 KPBZ 171738
TAFMGW
TAF
KMGW 171738Z 1718/1818 26006KT P6SM BKN015
     FM172000 30006KT P6SM BKN035
     FM180100 VRB03KT P6SM SKC=



000
FTUS41 KPBZ 171738
TAFHLG
TAF
KHLG 171738Z 1718/1818 26009KT P6SM BKN035
     FM172100 30006KT P6SM SCT035
     FM180100 VRB03KT P6SM SKC=



000
FTUS41 KPBZ 171738
TAFDUJ
TAF
KDUJ 171738Z 1718/1818 26006KT P6SM BKN015
      TEMPO 1718/1720 BKN007
     FM172200 30006KT P6SM BKN035
     FM180100 VRB02KT P6SM SKC=



000
FTUS41 KPBZ 171738
TAFPIT
TAF
KPIT 171738Z 1718/1824 26009KT P6SM BKN025
     FM171900 30006KT P6SM BKN035
     FM180100 VRB03KT P6SM SKC=



000
FTUS41 KPBZ 171738
TAFAGC
TAF
KAGC 171738Z 1718/1818 26009KT P6SM BKN025
     FM171900 30006KT P6SM BKN035
     FM180100 VRB03KT P6SM SKC=



000
FTUS41 KPBZ 171738
TAFBVI
TAF
KBVI 171738Z 1718/1818 26009KT P6SM BKN025
     FM171900 30006KT P6SM BKN035
     FM180100 VRB03KT P6SM SKC=



000
FTUS41 KPBZ 171738
TAFLBE
TAF
KLBE 171738Z 1718/1818 26009KT P6SM BKN025
     FM171900 30006KT P6SM BKN035
     FM180100 VRB03KT P6SM SKC=



000
FTUS41 KPBZ 171738
TAFZZV
TAF
KZZV 171738Z 1718/1818 30006KT P6SM BKN035
     FM180000 VRB02KT P6SM SKC=



000
FTUS41 KPBZ 171608 AAB
TAFPIT
TAF AMD
KPIT 171608Z 1716/1818 26009KT P6SM SCT025 BKN035
     FM171900 30006KT P6SM SCT035
     FM180100 VRB03KT P6SM SKC=



000
FTUS41 KPBZ 171607 AAA
TAFHLG
TAF AMD
KHLG 171607Z 1716/1812 22005KT P6SM BKN035
     FM171800 29006KT P6SM SCT035=



000
FTUS41 KPBZ 171607 AAA
TAFHLG
TAF AMD
KHLG 171607Z 1716/1812 22005KT P6SM BKN035
     FM171800 29006KT P6SM SCT035=



000
FTUS41 KPBZ 171452 AAA
TAFLBE
TAF AMD
KLBE 171452Z 1715/1812 20008KT P6SM BKN025
     FM171900 28006KT P6SM SCT035
     FM180100 VRB03KT P6SM SKC=



000
FTUS41 KPBZ 171452 AAA
TAFLBE
TAF AMD
KLBE 171452Z 1715/1812 20008KT P6SM BKN025
     FM171900 28006KT P6SM SCT035
     FM180100 VRB03KT P6SM SKC=



000
FTUS41 KPBZ 171451 AAA
TAFPIT
TAF AMD
KPIT 171451Z 1715/1818 26009KT P6SM SCT015 BKN025
     FM171900 30006KT P6SM SCT035
     FM180100 VRB03KT P6SM SKC=



000
FTUS41 KPBZ 171451 AAA
TAFPIT
TAF AMD
KPIT 171451Z 1715/1818 26009KT P6SM SCT015 BKN025
     FM171900 30006KT P6SM SCT035
     FM180100 VRB03KT P6SM SKC=



000
FTUS41 KPBZ 171437 AAB
TAFZZV
TAF AMD
KZZV 171437Z 1715/1812 27005KT P6SM BKN012
     FM171530 29005KT P6SM SCT012 BKN035
     FM171800 30006KT P6SM SCT035
     FM180000 VRB02KT P6SM SKC=



000
FTUS41 KPBZ 171403 AAA
TAFDUJ
TAF AMD
KDUJ 171403Z 1714/1812 23008KT P6SM -SHRA BKN005
      TEMPO 1714/1715 1 1/2SM BR
     FM171800 26006KT P6SM BKN025
     FM172000 30006KT P6SM SCT035
     FM180100 VRB02KT P6SM SKC=



000
FTUS41 KPBZ 171403 AAA
TAFDUJ
TAF AMD
KDUJ 171403Z 1714/1812 23008KT P6SM -SHRA BKN005
      TEMPO 1714/1715 1 1/2SM BR
     FM171800 26006KT P6SM BKN025
     FM172000 30006KT P6SM SCT035
     FM180100 VRB02KT P6SM SKC=



000
FTUS41 KPBZ 171301 AAA
TAFZZV
TAF AMD
KZZV 171301Z 1713/1812 18005KT P6SM BKN012
     FM171400 29005KT P6SM SCT012
      TEMPO 1714/1715 4SM BR
     FM171600 30006KT P6SM SCT035
     FM180000 VRB02KT P6SM SKC=



000
FTUS41 KPBZ 171301 AAA
TAFZZV
TAF AMD
KZZV 171301Z 1713/1812 18005KT P6SM BKN012
     FM171400 29005KT P6SM SCT012
      TEMPO 1714/1715 4SM BR
     FM171600 30006KT P6SM SCT035
     FM180000 VRB02KT P6SM SKC=



000
FTUS41 KPBZ 171225 AAA
TAFMGW
TAF AMD
KMGW 171225Z 1712/1812 22005KT P6SM VCSH OVC025
      TEMPO 1712/1714 1 1/2SM -SHRA BKN015
     FM171400 21004KT P6SM VCSH OVC015
     FM171800 26006KT P6SM BKN025
     FM172000 30006KT P6SM SCT035
     FM180100 VRB03KT P6SM SKC=



000
FTUS41 KPBZ 171132
TAFPIT
TAF
KPIT 171132Z 1712/1818 21005KT P6SM VCSH BKN018 OVC070
     FM171600 26009KT P6SM BKN025
     FM171900 30006KT P6SM SCT035
     FM180100 VRB03KT P6SM SKC=



000
FTUS41 KPBZ 171132
TAFLBE
TAF
KLBE 171132Z 1712/1812 20008KT P6SM VCSH BKN025
      TEMPO 1712/1716 6SM -SHRA BR OVC015
     FM172000 28006KT P6SM SCT035
     FM180100 VRB03KT P6SM SKC=



000
FTUS41 KPBZ 171132
TAFAGC
TAF
KAGC 171132Z 1712/1812 19007KT P6SM VCSH BKN018
     FM171600 26009KT P6SM BKN025
     FM171900 30006KT P6SM SCT035
     FM180100 VRB03KT P6SM SKC=



000
FTUS41 KPBZ 171132
TAFDUJ
TAF
KDUJ 171132Z 1712/1812 23008KT P6SM -SHRA BKN006 OVC013
     FM171800 26006KT P6SM BKN025
     FM172000 30006KT P6SM SCT035
     FM180100 VRB02KT P6SM SKC=



000
FTUS41 KPBZ 171132
TAFZZV
TAF
KZZV 171132Z 1712/1812 18005KT P6SM BKN012
     FM171300 29005KT P6SM SCT012
      TEMPO 1713/1715 4SM BR
     FM171600 30006KT P6SM SCT035
     FM180000 VRB02KT P6SM SKC=



000
FTUS41 KPBZ 171132
TAFMGW
TAF
KMGW 171132Z 1712/1812 22005KT P6SM VCSH OVC025
     FM171300 21004KT P6SM VCSH OVC015
     FM171800 26006KT P6SM BKN025
     FM172000 30006KT P6SM SCT035
     FM180100 VRB03KT P6SM SKC=



000
FTUS41 KPBZ 171132
TAFHLG
TAF
KHLG 171132Z 1712/1812 22005KT P6SM VCSH BKN021
      TEMPO 1713/1716 6SM BR OVC012
     FM171800 29006KT P6SM SCT035=



000
FTUS41 KPBZ 171132
TAFBVI
TAF
KBVI 171132Z 1712/1812 19005KT P6SM VCSH BKN018
     FM171600 26009KT P6SM BKN025
     FM171900 30006KT P6SM SCT035
     FM180100 VRB03KT P6SM SKC=



000
FTUS41 KPBZ 170929 AAB
TAFDUJ
TAF AMD
KDUJ 170929Z 1709/1806 23008KT P6SM -RA BKN009 OVC013
     FM171100 21008KT P6SM OVC008
     FM171800 26006KT P6SM BKN025
     FM172000 30006KT P6SM SCT035=



000
FTUS41 KPBZ 170903 AAA
TAFAGC
TAF AMD
KAGC 170903Z 1709/1806 19007KT P6SM BKN045 BKN060 OVC100
     FM171000 19005KT P6SM VCSH BKN025
     FM171200 21006KT 6SM -SHRA BR OVC015
     FM171600 26009KT P6SM BKN025
     FM171900 30006KT P6SM SCT035=



000
FTUS41 KPBZ 170902 AAA
TAFZZV
TAF AMD
KZZV 170902Z 1709/1806 00000KT P6SM SCT023 BKN040 BKN080
     FM171000 19004KT 6SM BR VCSH OVC020
     FM171400 29005KT P6SM SCT012 BKN025
     FM171600 30006KT P6SM SCT035=



000
FTUS41 KPBZ 170902 AAA
TAFDUJ
TAF AMD
KDUJ 170902Z 1709/1806 23007KT P6SM BKN011 OVC017
     FM171100 21008KT P6SM OVC008
     FM171800 26006KT P6SM BKN025
     FM172000 30006KT P6SM SCT035=



000
FTUS41 KPBZ 170902 AAA
TAFZZV
TAF AMD
KZZV 170902Z 1709/1806 00000KT P6SM SCT023 BKN040 BKN080
     FM171000 19004KT 6SM BR VCSH OVC020
     FM171400 29005KT P6SM SCT012 BKN025
     FM171600 30006KT P6SM SCT035=



000
FTUS41 KPBZ 170902 AAA
TAFDUJ
TAF AMD
KDUJ 170902Z 1709/1806 23007KT P6SM BKN011 OVC017
     FM171100 21008KT P6SM OVC008
     FM171800 26006KT P6SM BKN025
     FM172000 30006KT P6SM SCT035=



000
FTUS41 KPBZ 170855 AAA
TAFPIT
TAF AMD
KPIT 170855Z 1709/1812 21005KT P6SM BKN050 OVC070
     FM171000 19005KT P6SM VCSH BKN025
     FM171200 21006KT 6SM -SHRA BR OVC015
     FM171600 26009KT P6SM BKN025
     FM171900 30006KT P6SM SCT035=



000
FTUS41 KPBZ 170520
TAFAGC
TAF
KAGC 170520Z 1706/1806 19008KT P6SM OVC070
     FM170900 19005KT P6SM VCSH BKN025
     FM171200 21006KT 6SM -SHRA BR OVC015
     FM171600 26009KT P6SM BKN025
     FM171900 30006KT P6SM SCT035=



000
FTUS41 KPBZ 170520
TAFDUJ
TAF
KDUJ 170520Z 1706/1806 17005KT P6SM OVC028
     FM170700 18008KT P6SM -SHRA OVC025
     FM171100 21008KT P6SM OVC015
     FM171800 26006KT P6SM BKN025
     FM172000 30006KT P6SM SCT035=



000
FTUS41 KPBZ 170520
TAFAGC
TAF
KAGC 170520Z 1706/1806 19008KT P6SM OVC070
     FM170900 19005KT P6SM VCSH BKN025
     FM171200 21006KT 6SM -SHRA BR OVC015
     FM171600 26009KT P6SM BKN025
     FM171900 30006KT P6SM SCT035=



000
FTUS41 KPBZ 170520
TAFBVI
TAF
KBVI 170520Z 1706/1806 13005KT P6SM SCT035 OVC045
     FM170900 19005KT P6SM VCSH BKN020
     FM171200 21006KT 6SM -SHRA BR OVC010
     FM171600 26009KT P6SM BKN025
     FM171900 30006KT P6SM SCT035
      AMD NOT SKED 1706/1712=



000
FTUS41 KPBZ 170520
TAFMGW
TAF
KMGW 170520Z 1706/1806 VRB04KT P6SM VCSH OVC050
     FM171000 18005KT P6SM OVC025
     FM171300 21004KT P6SM VCSH OVC015
     FM171800 26006KT P6SM BKN025
     FM172000 30006KT P6SM SCT035=



000
FTUS41 KPBZ 170520
TAFLBE
TAF
KLBE 170520Z 1706/1806 18010KT P6SM BKN060 BKN080
     FM170900 19005KT P6SM VCSH BKN025
     FM171200 21006KT 6SM -SHRA BR OVC015
     FM171800 26009KT P6SM BKN025
     FM172000 28006KT P6SM SCT035=



000
FTUS41 KPBZ 170520
TAFBVI
TAF
KBVI 170520Z 1706/1806 13005KT P6SM SCT035 OVC045
     FM170900 19005KT P6SM VCSH BKN020
     FM171200 21006KT 6SM -SHRA BR OVC010
     FM171600 26009KT P6SM BKN025
     FM171900 30006KT P6SM SCT035
      AMD NOT SKED 1706/1712=



000
FTUS41 KPBZ 170520
TAFDUJ
TAF
KDUJ 170520Z 1706/1806 17005KT P6SM OVC028
     FM170700 18008KT P6SM -SHRA OVC025
     FM171100 21008KT P6SM OVC015
     FM171800 26006KT P6SM BKN025
     FM172000 30006KT P6SM SCT035=



000
FTUS41 KPBZ 170520
TAFPIT
TAF
KPIT 170520Z 1706/1812 17005KT P6SM SCT050 BKN060 OVC100
     FM170900 19005KT P6SM VCSH BKN025
     FM171200 21006KT 6SM -SHRA BR OVC015
     FM171600 26009KT P6SM BKN025
     FM171900 30006KT P6SM SCT035=



000
FTUS41 KPBZ 170520
TAFZZV
TAF
KZZV 170520Z 1706/1806 18010KT P6SM BKN050
     FM170800 18006KT 6SM -SHRA BR OVC020
     FM171000 19004KT 6SM BR VCSH OVC008
     FM171400 29005KT P6SM SCT012 BKN025
     FM171600 30006KT P6SM SCT035=



000
FTUS41 KPBZ 170520
TAFLBE
TAF
KLBE 170520Z 1706/1806 18010KT P6SM BKN060 BKN080
     FM170900 19005KT P6SM VCSH BKN025
     FM171200 21006KT 6SM -SHRA BR OVC015
     FM171800 26009KT P6SM BKN025
     FM172000 28006KT P6SM SCT035=



000
FTUS41 KPBZ 170520
TAFHLG
TAF
KHLG 170520Z 1706/1806 19007KT P6SM FEW060 OVC080
     FM170900 19005KT P6SM VCSH BKN025
     FM171200 21006KT 6SM BR VCSH OVC012
     FM171600 26009KT P6SM BKN025
     FM171900 29006KT P6SM SCT035=



000
FTUS41 KPBZ 170520
TAFHLG
TAF
KHLG 170520Z 1706/1806 19007KT P6SM FEW060 OVC080
     FM170900 19005KT P6SM VCSH BKN025
     FM171200 21006KT 6SM BR VCSH OVC012
     FM171600 26009KT P6SM BKN025
     FM171900 29006KT P6SM SCT035=



000
FTUS41 KPBZ 170520
TAFPIT
TAF
KPIT 170520Z 1706/1812 17005KT P6SM SCT050 BKN060 OVC100
     FM170900 19005KT P6SM VCSH BKN025
     FM171200 21006KT 6SM -SHRA BR OVC015
     FM171600 26009KT P6SM BKN025
     FM171900 30006KT P6SM SCT035=



000
FTUS41 KPBZ 170520
TAFZZV
TAF
KZZV 170520Z 1706/1806 18010KT P6SM BKN050
     FM170800 18006KT 6SM -SHRA BR OVC020
     FM171000 19004KT 6SM BR VCSH OVC008
     FM171400 29005KT P6SM SCT012 BKN025
     FM171600 30006KT P6SM SCT035=



000
FTUS41 KPBZ 170520
TAFMGW
TAF
KMGW 170520Z 1706/1806 VRB04KT P6SM VCSH OVC050
     FM171000 18005KT P6SM OVC025
     FM171300 21004KT P6SM VCSH OVC015
     FM171800 26006KT P6SM BKN025
     FM172000 30006KT P6SM SCT035=



000
FTUS41 KPBZ 170308 AAB
TAFPIT
TAF AMD
KPIT 170308Z 1703/1806 16003KT P6SM VCSH BKN050 OVC080
     FM170600 17006KT P6SM OVC025
     FM170800 19005KT 4SM -SHRA BR OVC012
     FM171000 21006KT 5SM -SHRA BR OVC008
     FM171500 26009KT P6SM BKN025
     FM171800 30006KT P6SM SCT035=



000
FTUS41 KPBZ 170308 AAB
TAFPIT
TAF AMD
KPIT 170308Z 1703/1806 16003KT P6SM VCSH BKN050 OVC080
     FM170600 17006KT P6SM OVC025
     FM170800 19005KT 4SM -SHRA BR OVC012
     FM171000 21006KT 5SM -SHRA BR OVC008
     FM171500 26009KT P6SM BKN025
     FM171800 30006KT P6SM SCT035=



000
FTUS41 KPBZ 170108 AAA
TAFZZV
TAF AMD
KZZV 170108Z 1701/1724 15008KT P6SM VCSH BKN050
     FM170400 17006KT 6SM -SHRA BKN025
     FM170800 21006KT 4SM -SHRA BR OVC008
     FM171300 26009KT P6SM BKN025
     FM171500 30006KT P6SM SCT035=



000
FTUS41 KPBZ 170108 AAA
TAFDUJ
TAF AMD
KDUJ 170108Z 1701/1724 15008KT P6SM -SHRA OVC025
     FM170400 17006KT P6SM -SHRA OVC015
     FM170600 20006KT 4SM -SHRA BR OVC006
     FM171200 28008KT P6SM OVC015
     FM172000 30006KT P6SM SCT035=



000
FTUS41 KPBZ 170107 AAA
TAFMGW
TAF AMD
KMGW 170107Z 1701/1724 18008KT P6SM VCSH BKN050
     FM170700 18007KT P6SM OVC025
     FM170900 19007KT 4SM -SHRA BR OVC010
     FM171600 26009KT P6SM BKN025
     FM171800 30006KT P6SM SCT035=



000
FTUS41 KPBZ 170106 AAA
TAFLBE
TAF AMD
KLBE 170106Z 1701/1724 18010KT P6SM VCSH BKN040
     FM170600 17008KT P6SM OVC025
     FM170800 19007KT 4SM -SHRA BR OVC012
     FM171000 21006KT 5SM -SHRA BR OVC008
     FM171500 26009KT P6SM BKN025
     FM171800 30006KT P6SM SCT035=



000
FTUS41 KPBZ 170105 AAA
TAFAGC
TAF AMD
KAGC 170105Z 1701/1724 14006KT P6SM VCSH BKN040
     FM170600 17006KT P6SM OVC025
     FM170800 19005KT 4SM -SHRA BR OVC012
     FM171000 21006KT 5SM -SHRA BR OVC008
     FM171500 26009KT P6SM BKN025
     FM171800 30006KT P6SM SCT035=



000
FTUS41 KPBZ 170105 AAA
TAFBVI
TAF AMD
KBVI 170105Z 1701/1724 14006KT P6SM VCSH BKN040
     FM170600 17006KT P6SM OVC025
     FM170800 19005KT 4SM -SHRA BR OVC012
     FM171000 21006KT 5SM -SHRA BR OVC008
     FM171500 26009KT P6SM BKN025
     FM171800 30006KT P6SM SCT035
      AMD NOT SKED 1702/1712=



000
FTUS41 KPBZ 170105 AAA
TAFHLG
TAF AMD
KHLG 170105Z 1701/1724 14006KT P6SM VCSH BKN040
     FM170600 17006KT P6SM OVC025
     FM170800 19005KT 4SM -SHRA BR OVC012
     FM171000 21006KT 5SM -SHRA BR OVC008
     FM171500 26009KT P6SM BKN025
     FM171800 30006KT P6SM SCT035=



000
FTUS41 KPBZ 170105 AAA
TAFHLG
TAF AMD
KHLG 170105Z 1701/1724 14006KT P6SM VCSH BKN040
     FM170600 17006KT P6SM OVC025
     FM170800 19005KT 4SM -SHRA BR OVC012
     FM171000 21006KT 5SM -SHRA BR OVC008
     FM171500 26009KT P6SM BKN025
     FM171800 30006KT P6SM SCT035=



000
FTUS41 KPBZ 170104 AAA
TAFPIT
TAF AMD
KPIT 170104Z 1701/1806 14006KT P6SM VCSH BKN040
     FM170600 17006KT P6SM OVC025
     FM170800 19005KT 4SM -SHRA BR OVC012
     FM171000 21006KT 5SM -SHRA BR OVC008
     FM171500 26009KT P6SM BKN025
     FM171800 30006KT P6SM SCT035=



000
FTUS41 KPBZ 170104 AAA
TAFPIT
TAF AMD
KPIT 170104Z 1701/1806 14006KT P6SM VCSH BKN040
     FM170600 17006KT P6SM OVC025
     FM170800 19005KT 4SM -SHRA BR OVC012
     FM171000 21006KT 5SM -SHRA BR OVC008
     FM171500 26009KT P6SM BKN025
     FM171800 30006KT P6SM SCT035=



000
FTUS41 KPBZ 162320
TAFMGW
TAF
KMGW 162320Z 1700/1724 18008KT P6SM -SHRA OVC040
     FM170700 18007KT 6SM -SHRA OVC025
     FM171100 19007KT 4SM -SHRA BR OVC010
     FM171600 26009KT P6SM BKN025
     FM171800 30006KT P6SM SCT035=



000
FTUS41 KPBZ 162320
TAFLBE
TAF
KLBE 162320Z 1700/1724 18010KT P6SM -SHRA OVC040
     FM170700 18007KT 6SM -SHRA OVC025
     FM171100 19007KT 5SM -SHRA BR OVC012
     FM171600 26009KT P6SM BKN025
     FM172000 30006KT P6SM SCT035=



000
FTUS41 KPBZ 162320
TAFZZV
TAF
KZZV 162320Z 1700/1724 15007KT P6SM -SHRA BKN035
     FM170200 17006KT 6SM -SHRA BKN025
     FM170800 21006KT 4SM -SHRA BR OVC008
     FM171300 26009KT P6SM BKN025
     FM171500 30006KT P6SM SCT035=



000
FTUS41 KPBZ 162320
TAFDUJ
TAF
KDUJ 162320Z 1700/1724 18010G18KT P6SM -SHRA SCT025 OVC035
     FM170200 17008KT P6SM -SHRA OVC025
     FM170600 20006KT 4SM -SHRA BR OVC006
     FM171200 28008KT P6SM OVC015
     FM172000 30006KT P6SM SCT035=



000
FTUS41 KPBZ 162320
TAFAGC
TAF
KAGC 162320Z 1700/1724 16007KT P6SM -SHRA BKN035
     FM170300 17007KT P6SM -SHRA OVC025
     FM170800 19006KT 6SM -SHRA OVC012
     FM171000 21006KT 5SM -SHRA BR OVC008
     FM171500 26009KT P6SM BKN025
     FM171800 30006KT P6SM SCT035=



000
FTUS41 KPBZ 162320
TAFBVI
TAF
KBVI 162320Z 1700/1724 15007KT P6SM -SHRA BKN035
     FM170200 16007KT P6SM -SHRA OVC025
     FM170600 19007KT 6SM -SHRA OVC012
     FM171000 21006KT 5SM -SHRA BR OVC008
     FM171500 26009KT P6SM BKN025
     FM171800 30006KT P6SM SCT035
      AMD NOT SKED 1702/1712=



000
FTUS41 KPBZ 162320
TAFPIT
TAF
KPIT 162320Z 1700/1806 15007KT P6SM -SHRA BKN035
     FM170300 17006KT P6SM -SHRA OVC025
     FM170800 19005KT 6SM -SHRA OVC012
     FM171000 21006KT 5SM -SHRA BR OVC008
     FM171500 26009KT P6SM BKN025
     FM171800 30006KT P6SM SCT035=



000
FTUS41 KPBZ 162320
TAFHLG
TAF
KHLG 162320Z 1700/1724 17008KT P6SM -SHRA BKN035
     FM170300 18007KT P6SM -SHRA OVC025
     FM170800 19007KT 6SM -SHRA OVC012
     FM171000 21006KT 5SM -SHRA BR OVC008
     FM171500 26009KT P6SM BKN025
     FM171800 30006KT P6SM SCT035=



000
FTUS41 KPBZ 162218 AAB
TAFDUJ
TAF AMD
KDUJ 162218Z 1622/1718 15011G22KT P6SM -SHRA SCT025 OVC035
     FM170200 17008KT 6SM -SHRA OVC015
     FM170600 20006KT 4SM -SHRA BR OVC006
     FM171200 28008KT P6SM OVC015=



000
FTUS41 KPBZ 162117 AAA
TAFDUJ
TAF AMD
KDUJ 162117Z 1621/1718 15011KT P6SM -SHRA SCT025 OVC035
     FM170200 17008KT 6SM -SHRA OVC015
     FM170600 20006KT 4SM -SHRA BR OVC006
     FM171200 28008KT P6SM OVC015=



000
FTUS41 KPBZ 162116 AAA
TAFHLG
TAF AMD
KHLG 162116Z 1621/1718 15010KT P6SM -SHRA OVC035
     FM170200 16007KT P6SM -SHRA OVC025
     FM170800 19007KT 6SM -SHRA OVC012
     FM171000 21006KT 5SM -SHRA BR OVC008
     FM171500 26009KT P6SM BKN025=



000
FTUS41 KPBZ 162116 AAA
TAFMGW
TAF AMD
KMGW 162116Z 1621/1718 15008KT P6SM -SHRA OVC040
     FM170700 16007KT 6SM -SHRA OVC025
     FM171100 19007KT 4SM -SHRA BR OVC010
     FM171600 26009KT P6SM BKN025=



000
FTUS41 KPBZ 162115 AAA
TAFBVI
TAF AMD
KBVI 162115Z 1621/1718 14008KT P6SM -SHRA OVC035
     FM170200 16007KT P6SM -SHRA OVC025
     FM170600 19007KT 6SM -SHRA OVC012
     FM171000 21006KT 5SM -SHRA BR OVC008
     FM171500 26009KT P6SM BKN025=



000
FTUS41 KPBZ 162113 AAA
TAFPIT
TAF AMD
KPIT 162113Z 1621/1724 12007KT P6SM -SHRA OVC035
     FM170300 16006KT P6SM -SHRA OVC025
     FM170800 19005KT 6SM -SHRA OVC012
     FM171000 21006KT 5SM -SHRA BR OVC008
     FM171500 26009KT P6SM BKN025=



000
FTUS41 KPBZ 162113 AAA
TAFAGC
TAF AMD
KAGC 162113Z 1621/1718 13008KT P6SM -SHRA OVC035
     FM170300 16007KT P6SM -SHRA OVC025
     FM170800 19006KT 6SM -SHRA OVC012
     FM171000 21006KT 5SM -SHRA BR OVC008
     FM171500 26009KT P6SM BKN025=



000
FTUS41 KPBZ 161732
TAFLBE
TAF
KLBE 161732Z 1618/1718 16010G20KT P6SM -SHRA OVC040
     FM170700 16007KT 6SM -SHRA OVC025
     FM171100 19007KT 5SM -SHRA BR OVC012
     FM171600 26009KT P6SM BKN025=



000
FTUS41 KPBZ 161732
TAFDUJ
TAF
KDUJ 161732Z 1618/1718 17014G22KT P6SM OVC050
     FM162200 17010G20KT P6SM -SHRA SCT025 OVC035
     FM170200 17008KT 6SM -SHRA OVC015
     FM170600 20006KT 4SM -SHRA BR OVC006
     FM171200 28008KT P6SM OVC015=



000
FTUS41 KPBZ 161732
TAFAGC
TAF
KAGC 161732Z 1618/1718 16010G20KT 4SM -SHRA OVC040
     FM170300 16007KT P6SM -SHRA OVC025
     FM170800 19007KT 6SM -SHRA OVC012
     FM171000 21006KT 5SM -SHRA BR OVC008
     FM171500 26009KT P6SM BKN025=



000
FTUS41 KPBZ 161732
TAFHLG
TAF
KHLG 161732Z 1618/1718 16010G20KT P6SM -SHRA OVC040
     FM170300 16007KT P6SM -SHRA OVC025
     FM170800 19007KT 6SM -SHRA OVC012
     FM171000 21006KT 5SM -SHRA BR OVC008
     FM171500 26009KT P6SM BKN025=



000
FTUS41 KPBZ 161732
TAFDUJ
TAF
KDUJ 161732Z 1618/1718 17014G22KT P6SM OVC050
     FM162200 17010G20KT P6SM -SHRA SCT025 OVC035
     FM170200 17008KT 6SM -SHRA OVC015
     FM170600 20006KT 4SM -SHRA BR OVC006
     FM171200 28008KT P6SM OVC015=



000
FTUS41 KPBZ 161732
TAFPIT
TAF
KPIT 161732Z 1618/1724 16010G20KT P6SM -SHRA OVC040
     FM170300 16007KT P6SM -SHRA OVC025
     FM170800 19007KT 6SM -SHRA OVC012
     FM171000 21006KT 5SM -SHRA BR OVC008
     FM171500 26009KT P6SM BKN025=



000
FTUS41 KPBZ 161732
TAFZZV
TAF
KZZV 161732Z 1618/1718 15008G18KT P6SM -SHRA SCT025 OVC035
      TEMPO 1618/1620 3SM -SHRA BKN025
     FM170200 18006KT 6SM -SHRA BKN025
     FM170800 21006KT 4SM -SHRA BR OVC008
     FM171300 26009KT P6SM BKN025=



000
FTUS41 KPBZ 161732
TAFLBE
TAF
KLBE 161732Z 1618/1718 16010G20KT P6SM -SHRA OVC040
     FM170700 16007KT 6SM -SHRA OVC025
     FM171100 19007KT 5SM -SHRA BR OVC012
     FM171600 26009KT P6SM BKN025=



000
FTUS41 KPBZ 161732
TAFBVI
TAF
KBVI 161732Z 1618/1718 16010G20KT P6SM -SHRA OVC040
     FM170300 16007KT P6SM -SHRA OVC025
     FM170800 19007KT 6SM -SHRA OVC012
     FM171000 21006KT 5SM -SHRA BR OVC008
     FM171500 26009KT P6SM BKN025=



000
FTUS41 KPBZ 161732
TAFAGC
TAF
KAGC 161732Z 1618/1718 16010G20KT 4SM -SHRA OVC040
     FM170300 16007KT P6SM -SHRA OVC025
     FM170800 19007KT 6SM -SHRA OVC012
     FM171000 21006KT 5SM -SHRA BR OVC008
     FM171500 26009KT P6SM BKN025=



000
FTUS41 KPBZ 161732
TAFBVI
TAF
KBVI 161732Z 1618/1718 16010G20KT P6SM -SHRA OVC040
     FM170300 16007KT P6SM -SHRA OVC025
     FM170800 19007KT 6SM -SHRA OVC012
     FM171000 21006KT 5SM -SHRA BR OVC008
     FM171500 26009KT P6SM BKN025=



000
FTUS41 KPBZ 161732
TAFMGW
TAF
KMGW 161732Z 1618/1718 16010G20KT P6SM -SHRA OVC040
     FM170700 16007KT 6SM -SHRA OVC025
     FM171100 19007KT 4SM -SHRA BR OVC010
     FM171600 26009KT P6SM BKN025=



000
FTUS41 KPBZ 161732
TAFHLG
TAF
KHLG 161732Z 1618/1718 16010G20KT P6SM -SHRA OVC040
     FM170300 16007KT P6SM -SHRA OVC025
     FM170800 19007KT 6SM -SHRA OVC012
     FM171000 21006KT 5SM -SHRA BR OVC008
     FM171500 26009KT P6SM BKN025=



000
FTUS41 KPBZ 161732
TAFZZV
TAF
KZZV 161732Z 1618/1718 15008G18KT P6SM -SHRA SCT025 OVC035
      TEMPO 1618/1620 3SM -SHRA BKN025
     FM170200 18006KT 6SM -SHRA BKN025
     FM170800 21006KT 4SM -SHRA BR OVC008
     FM171300 26009KT P6SM BKN025=



000
FTUS41 KPBZ 161732
TAFMGW
TAF
KMGW 161732Z 1618/1718 16010G20KT P6SM -SHRA OVC040
     FM170700 16007KT 6SM -SHRA OVC025
     FM171100 19007KT 4SM -SHRA BR OVC010
     FM171600 26009KT P6SM BKN025=



000
FTUS41 KPBZ 161732
TAFPIT
TAF
KPIT 161732Z 1618/1724 16010G20KT P6SM -SHRA OVC040
     FM170300 16007KT P6SM -SHRA OVC025
     FM170800 19007KT 6SM -SHRA OVC012
     FM171000 21006KT 5SM -SHRA BR OVC008
     FM171500 26009KT P6SM BKN025=



000
FTUS41 KPBZ 161612 AAA
TAFZZV
TAF AMD
KZZV 161612Z 1616/1712 15008G18KT P6SM -SHRA SCT025 OVC035
      TEMPO 1616/1620 3SM -SHRA BKN025
     FM170200 18006KT P6SM -SHRA BKN025
     FM170900 21006KT P6SM -RA OVC012=



000
FTUS41 KPBZ 161541 AAA
TAFAGC
TAF AMD
KAGC 161541Z 1616/1712 16010G20KT P6SM -SHRA OVC035
     FM170300 19007KT P6SM -RA OVC025
     FM170600 21007KT P6SM -RA OVC012=



000
FTUS41 KPBZ 161500 AAA
TAFPIT
TAF AMD
KPIT 161500Z 1615/1718 16010G20KT P6SM -SHRA OVC040
     FM170300 19007KT P6SM -RA OVC025
     FM170600 21007KT P6SM -RA OVC012=



000
FTUS41 KPBZ 161414 AAA
TAFMGW
TAF AMD
KMGW 161414Z 1614/1712 17010G20KT P6SM -SHRA OVC050
     FM161800 16010G20KT P6SM -RA SCT025 OVC035
     FM170200 19007KT P6SM -RA OVC025=



000
FTUS41 KPBZ 161126
TAFLBE
TAF
KLBE 161126Z 1612/1712 10010KT P6SM OVC200
     FM161600 14010KT P6SM SCT050 OVC200
     FM161900 16010G22KT P6SM -RA SCT025 OVC035
     FM170300 19007KT P6SM -RA OVC025
     FM170600 21007KT P6SM -RA OVC010=



000
FTUS41 KPBZ 161126
TAFAGC
TAF
KAGC 161126Z 1612/1712 08007KT P6SM OVC200
     FM161500 14010KT P6SM SCT050 OVC200
     FM161800 16010G20KT P6SM -RA SCT025 OVC035
     FM170300 19007KT P6SM -RA OVC025
     FM170600 21007KT P6SM -RA OVC012=



000
FTUS41 KPBZ 161126
TAFMGW
TAF
KMGW 161126Z 1612/1712 11006KT P6SM OVC200
     FM161500 15010KT P6SM OVC050
     FM161800 16010G20KT P6SM -RA SCT025 OVC035
     FM170200 19007KT P6SM -RA OVC025=



000
FTUS41 KPBZ 161126
TAFZZV
TAF
KZZV 161126Z 1612/1712 14007KT P6SM OVC060
     FM161500 15008G18KT P6SM VCSH SCT025 OVC035
     FM170200 18006KT P6SM -RA OVC015=



000
FTUS41 KPBZ 161126
TAFHLG
TAF
KHLG 161126Z 1612/1712 12008KT P6SM OVC200
     FM161500 15010KT P6SM BKN050 OVC200
     FM161700 16008G18KT P6SM -RA SCT025 OVC035
     FM170300 19007KT P6SM -RA OVC025
     FM170600 20007KT P6SM -RA OVC012=



000
FTUS41 KPBZ 161126
TAFDUJ
TAF
KDUJ 161126Z 1612/1712 12009KT P6SM OVC200
     FM162000 17012G22KT P6SM OVC050
     FM162200 17010G20KT P6SM -RA SCT015 OVC025
     FM170200 17008KT P6SM -RA OVC007=



000
FTUS41 KPBZ 161126
TAFPIT
TAF
KPIT 161126Z 1612/1718 10008KT P6SM BKN110
     FM161500 14010KT P6SM SCT050 BKN110
     FM161800 16010G20KT P6SM -RA SCT025 OVC035
     FM170300 19007KT P6SM -RA OVC025
     FM170600 21007KT P6SM -RA OVC012=



000
FTUS41 KPBZ 161126
TAFBVI
TAF
KBVI 161126Z 1612/1712 08007KT P6SM OVC200
     FM161500 14010KT P6SM SCT050 OVC200
     FM161800 16010G20KT P6SM -RA SCT025 OVC035
     FM170300 19007KT P6SM -RA OVC025
     FM170600 21007KT P6SM -RA OVC012=



000
FTUS41 KPBZ 161126
TAFLBE
TAF
KLBE 161126Z 1612/1712 10010KT P6SM OVC200
     FM161600 14010KT P6SM SCT050 OVC200
     FM161900 16010G22KT P6SM -RA SCT025 OVC035
     FM170300 19007KT P6SM -RA OVC025
     FM170600 21007KT P6SM -RA OVC010=



000
FTUS41 KPBZ 161126
TAFZZV
TAF
KZZV 161126Z 1612/1712 14007KT P6SM OVC060
     FM161500 15008G18KT P6SM VCSH SCT025 OVC035
     FM170200 18006KT P6SM -RA OVC015=



000
FTUS41 KPBZ 161126
TAFHLG
TAF
KHLG 161126Z 1612/1712 12008KT P6SM OVC200
     FM161500 15010KT P6SM BKN050 OVC200
     FM161700 16008G18KT P6SM -RA SCT025 OVC035
     FM170300 19007KT P6SM -RA OVC025
     FM170600 20007KT P6SM -RA OVC012=



000
FTUS41 KPBZ 161126
TAFPIT
TAF
KPIT 161126Z 1612/1718 10008KT P6SM BKN110
     FM161500 14010KT P6SM SCT050 BKN110
     FM161800 16010G20KT P6SM -RA SCT025 OVC035
     FM170300 19007KT P6SM -RA OVC025
     FM170600 21007KT P6SM -RA OVC012=



000
FTUS41 KPBZ 161126
TAFBVI
TAF
KBVI 161126Z 1612/1712 08007KT P6SM OVC200
     FM161500 14010KT P6SM SCT050 OVC200
     FM161800 16010G20KT P6SM -RA SCT025 OVC035
     FM170300 19007KT P6SM -RA OVC025
     FM170600 21007KT P6SM -RA OVC012=



000
FTUS41 KPBZ 161126
TAFAGC
TAF
KAGC 161126Z 1612/1712 08007KT P6SM OVC200
     FM161500 14010KT P6SM SCT050 OVC200
     FM161800 16010G20KT P6SM -RA SCT025 OVC035
     FM170300 19007KT P6SM -RA OVC025
     FM170600 21007KT P6SM -RA OVC012=



000
FTUS41 KPBZ 161126
TAFMGW
TAF
KMGW 161126Z 1612/1712 11006KT P6SM OVC200
     FM161500 15010KT P6SM OVC050
     FM161800 16010G20KT P6SM -RA SCT025 OVC035
     FM170200 19007KT P6SM -RA OVC025=



000
FTUS41 KPBZ 161126
TAFDUJ
TAF
KDUJ 161126Z 1612/1712 12009KT P6SM OVC200
     FM162000 17012G22KT P6SM OVC050
     FM162200 17010G20KT P6SM -RA SCT015 OVC025
     FM170200 17008KT P6SM -RA OVC007=



    US Dept of Commerce
    National Oceanic and Atmospheric Administration
    National Weather Service
    1325 East West Highway
    Silver Spring, MD 20910
    Page Author: NWS Internet Services Team
Disclaimer
Information Quality
Credits
Glossary
Privacy Policy
Freedom of Information Act (FOIA)
About Us
Career Opportunities